NZCH

Christchurch

Airport
ICAO code
NZCH
IATA Code
CHC
Summary
ICAO Region
APAC
ICAO Territory
Location

Harewood, Christchurch,

Serving
Christchurch
Elevation
123 ft
Coordinates
43° 29' 21" S , 172° 32' 2" E
KCC
Cfb
Metar
Observation
NZCH 171230Z AUTO 23006KT 8000 -RA FEW010/// BKN090/// OVC100/// 10/09 Q1019 TEMPO 4000 RADZ BKN006
Station
Christchurch
Date/Time
2022-08-17 12:30:00
Wind direction
230°
Wind speed
06 kts
Lowest cloud amount
few clouds
Temperature
10°C
Dew point
9°C
Humidity
93%
QNH
1019 hPa
Weather condition
n/a

Description

Christchurch International Airport is the main airport that serves Christchurch, New Zealand. It is located 12 km to the northwest of the city centre, in the suburb of Harewood.

Climatology

Temperate Marine climate/Oceanic climate (Köppen climate classification Cfb). Moderately cool summer and comparatively warm winter with a temperature range of only 14°C.

Runways

Designator Length Width Surface Rops
1/19 515 70 GRS No/No
11/29 1703 45 Bitumen Yes/Yes
2/20 3288 45 ASP Yes/Yes

SKYbrary Partners:

Safety knowledge contributed by: